This is the latest recevied weather packets stored in our database for station/object VA3XLC. If no packets are shown the sender has not sent any weather packets the latest 10 day(s).
| Time | Temp. | Humidity | Pressure | Rain* | Wind** | Luminosity | Snow |
|---|---|---|---|---|---|---|---|
| 1777759600 | 7.22° C | 28% | 982.2 hPa | - | - | 265 W/m² | - |
| 1777754154 | 6.67° C | 35% | 982.3 hPa | - | - | 315 W/m² | - |
| 1777753254 | 6.11° C | 37% | 982.4 hPa | - | - | 416 W/m² | - |
| 1777752052 | 6.11° C | 40% | 982.6 hPa | - | - | 380 W/m² | - |
| 1777751151 | 6.11° C | 43% | 982.7 hPa | - | - | 219 W/m² | - |
| 1777750850 | 6.11° C | 43% | 982.9 hPa | - | - | 210 W/m² | - |
| 1777749026 | 5.56° C | 44% | 983.1 hPa | - | - | 232 W/m² | - |
| 1777747223 | 5.56° C | 46% | 983.1 hPa | - | - | 345 W/m² | - |
| 1777745701 | 5.56° C | 47% | 983.2 hPa | - | - | 390 W/m² | - |
| 1777741755 | 5° C | 49% | 983.1 hPa | - | - | 258 W/m² | - |
| 1777740252 | 5° C | 49% | 983.1 hPa | - | - | 238 W/m² | - |
| 1777737185 | 5° C | 51% | 983.3 hPa | - | - | 285 W/m² | - |
| 1777736885 | 5° C | 52% | 983.3 hPa | - | - | 255 W/m² | - |
| 1777736585 | 4.44° C | 53% | 983.2 hPa | - | - | 348 W/m² | - |
| 1777734742 | 4.44° C | 52% | 983.2 hPa | - | - | 295 W/m² | - |
| 1777734141 | 4.44° C | 51% | 983.2 hPa | - | - | 290 W/m² | - |
| 1777733541 | 4.44° C | 53% | 983.3 hPa | - | - | 281 W/m² | - |
| 1777732940 | 4.44° C | 53% | 983.2 hPa | - | - | 280 W/m² | - |
| 1777731417 | 4.44° C | 53% | 983.4 hPa | - | - | 803 W/m² | - |
| 1777729573 | 4.44° C | 54% | 983.6 hPa | - | - | 716 W/m² | - |
| 1777727772 | 3.89° C | 61% | 983.7 hPa | - | - | 573 W/m² | - |
| 1777726849 | 3.33° C | 65% | 983.6 hPa | - | - | 521 W/m² | - |
| 1777725348 | 2.78° C | 67% | 983.7 hPa | - | - | 369 W/m² | - |
| 1777723202 | 2.22° C | 71% | 983.7 hPa | - | - | 251 W/m² | - |
| 1777720136 | 1.67° C | 74% | 983.5 hPa | - | - | 50 W/m² | - |
* Rain since midnight (hover to see other rain measurements)
** Current wind speed in m/s (hover to see current wind gust speed)